Portada
METAR-TAF:

METAR-TAF

Aeroports :

Dimapur, Índia

latitud: 25-53-02N, longitud: 093-46-16E, altitud: 148 m

Observació

L'informe es va fer fa 13 hores i 23 minuts, a les 07:00 UTC
Vent 3 kt del Est
Temperatura 30°C
Humitat 62%
Pressió 1012 hPa
Visibilitat: 6000 m
Núvols disperses a una alçada de 2000 ft

METAR: VEMR 160700Z 09003KT 6000 SCT020 30/22 Q1012

Hora: 01:53 (20:23 UTC)

Pronòstic

L'informe es va fer fa 3 hores i 23 minuts, a les 17:00 UTC
Pronòstic vàlid del 16 a les 18 UTC al 17 a les 03 UTC
Vent kt del Nord
Visibilitat: 3000 m
Núvols disperses a una alçada de 2000 ft
Núvols disperses a una alçada de 10000 ft
boirina
Evolucionant progressivament
l' 16 a les 22 UTC al 16 a les 24 UTC
Visibilitat: 2000 m
boirina

TAF: VEMR 161700Z 1618/1703 00000KT 3000 BR SCT020 SCT100 BECMG 1622/1624 2000 BR

Observacions i pronòstics meteorològics de més de 4000 aeroports (METAR i TAF).

Les estacions disponibles són els punts grocs i vermells al mapa.

Posi el ratolí al punt desitjat per veure el nom de l'estació.

Feu clic per veure les observacions i els pronòstics meteorològics.

Per canviar el mapa: feu clic els botons verds amb una creu de color negre per apropar; al botó verd amb un guió per allunyar la imatge; o en les fletxes verdes per a mapes adjacents.


METAR-TAF: